Time,TemperatureF,DewpointF,PressureIn,WindDirection,WindDirectionDegrees,WindSpeedMPH,WindSpeedGustMPH,Humidity,HourlyPrecipIn,Conditions,Clouds,dailyrainin,SoftwareType,DateUTC
2013-07-28 00:12:00,72.5,71.9,29.84,SSW,202,0.0,-999.0,98,-99.99,,,0.00,Acu-Link.com,2013-07-28 04:12:00,
2013-07-28 00:27:00,72.3,72.0,29.83,South,180,0.0,-999.0,99,-99.99,,,0.00,Acu-Link.com,2013-07-28 04:27:00,
2013-07-28 00:43:00,72.1,71.8,29.83,South,180,0.0,-999.0,99,-99.99,,,0.00,Acu-Link.com,2013-07-28 04:43:00,
2013-07-28 00:58:00,72.0,71.7,29.83,SSW,202,0.0,-999.0,99,-99.99,,,0.00,Acu-Link.com,2013-07-28 04:58:00,
2013-07-28 01:13:00,71.8,71.5,29.83,South,180,0.0,-999.0,99,-99.99,,,0.00,Acu-Link.com,2013-07-28 05:13:00,
2013-07-28 01:29:00,71.6,71.3,29.83,South,180,0.0,-999.0,99,-99.99,,,0.00,Acu-Link.com,2013-07-28 05:29:00,
2013-07-28 01:44:00,71.4,71.1,29.83,SSW,202,0.0,-999.0,99,-99.99,,,0.00,Acu-Link.com,2013-07-28 05:44:00,
2013-07-28 01:59:00,71.2,70.9,29.83,SSW,202,0.0,-999.0,99,-99.99,,,0.00,Acu-Link.com,2013-07-28 05:59:00,
2013-07-28 02:14:00,71.1,70.8,29.82,South,180,0.0,-999.0,99,-99.99,,,0.00,Acu-Link.com,2013-07-28 06:14:00,
2013-07-28 02:30:00,70.9,70.6,29.82,SE,135,0.0,-999.0,99,-99.99,,,0.00,Acu-Link.com,2013-07-28 06:30:00,
2013-07-28 02:45:00,70.9,70.6,29.81,South,180,0.0,-999.0,99,-99.99,,,0.00,Acu-Link.com,2013-07-28 06:45:00,
2013-07-28 03:00:00,70.7,70.4,29.81,South,180,0.0,-999.0,99,-99.99,,,0.00,Acu-Link.com,2013-07-28 07:00:00,
2013-07-28 03:16:00,70.3,70.0,29.81,South,180,0.0,-999.0,99,-99.99,,,0.00,Acu-Link.com,2013-07-28 07:16:00,
2013-07-28 04:02:00,70.0,69.7,29.82,South,180,0.0,-999.0,99,-99.99,,,0.00,Acu-Link.com,2013-07-28 08:02:00,
2013-07-28 04:17:00,70.0,69.7,29.81,South,180,0.0,-999.0,99,-99.99,,,0.00,Acu-Link.com,2013-07-28 08:17:00,
2013-07-28 04:32:00,69.6,69.3,29.81,South,180,0.0,-999.0,99,-99.99,,,0.00,Acu-Link.com,2013-07-28 08:32:00,
2013-07-28 04:47:00,69.8,69.5,29.81,South,180,0.0,-999.0,99,-99.99,,,0.00,Acu-Link.com,2013-07-28 08:47:00,
2013-07-28 05:03:00,69.6,69.3,29.81,South,180,0.0,-999.0,99,-99.99,,,0.00,Acu-Link.com,2013-07-28 09:03:00,
2013-07-28 05:18:00,69.6,69.3,29.82,SW,225,0.0,-999.0,99,-99.99,,,0.00,Acu-Link.com,2013-07-28 09:18:00,
2013-07-28 05:33:00,69.4,69.1,29.82,WNW,292,0.0,-999.0,99,-99.99,,,0.00,Acu-Link.com,2013-07-28 09:33:00,
2013-07-28 05:48:00,69.4,69.1,29.83,WNW,292,0.0,-999.0,99,-99.99,,,0.00,Acu-Link.com,2013-07-28 09:48:00,
2013-07-28 06:04:00,69.4,69.1,29.83,WNW,292,0.0,-999.0,99,-99.99,,,0.00,Acu-Link.com,2013-07-28 10:04:00,
2013-07-28 06:19:00,69.4,69.1,29.84,WNW,292,0.0,-999.0,99,-99.99,,,0.00,Acu-Link.com,2013-07-28 10:19:00,
2013-07-28 06:34:00,69.3,69.0,29.84,WNW,292,0.0,-999.0,99,-99.99,,,0.00,Acu-Link.com,2013-07-28 10:34:00,
2013-07-28 06:49:00,69.1,68.8,29.84,WNW,292,0.0,-999.0,99,-99.99,,,0.00,Acu-Link.com,2013-07-28 10:49:00,
2013-07-28 07:05:00,69.1,68.8,29.84,South,180,0.0,-999.0,99,-99.99,,,0.00,Acu-Link.com,2013-07-28 11:05:00,
2013-07-28 07:20:00,68.9,68.6,29.85,West,270,0.0,-999.0,99,-99.99,,,0.00,Acu-Link.com,2013-07-28 11:20:00,
2013-07-28 07:35:00,69.3,69.0,29.85,SSW,202,0.0,-999.0,99,-99.99,,,0.00,Acu-Link.com,2013-07-28 11:35:00,
2013-07-28 07:51:00,69.6,69.3,29.85,SSW,202,0.0,-999.0,99,-99.99,,,0.00,Acu-Link.com,2013-07-28 11:51:00,
2013-07-28 08:06:00,70.3,70.0,29.86,SSW,202,0.0,-999.0,99,-99.99,,,0.00,Acu-Link.com,2013-07-28 12:06:00,
2013-07-28 08:21:00,71.4,71.1,29.86,NW,315,0.0,-999.0,99,-99.99,,,0.00,Acu-Link.com,2013-07-28 12:21:00,
2013-07-28 08:36:00,73.2,72.0,29.86,SSE,157,0.0,-999.0,96,-99.99,,,0.00,Acu-Link.com,2013-07-28 12:36:00,
2013-07-28 08:52:00,73.8,72.3,29.86,South,180,0.0,-999.0,95,-99.99,,,0.00,Acu-Link.com,2013-07-28 12:52:00,
2013-07-28 09:07:00,74.5,72.7,29.87,SSE,157,0.0,-999.0,94,-99.99,,,0.00,Acu-Link.com,2013-07-28 13:07:00,
2013-07-28 09:22:00,74.8,72.6,29.87,SSE,157,0.0,-999.0,93,-99.99,,,0.00,Acu-Link.com,2013-07-28 13:22:00,
2013-07-28 09:37:00,75.7,73.5,29.87,ESE,112,0.0,-999.0,93,-99.99,,,0.00,Acu-Link.com,2013-07-28 13:37:00,
2013-07-28 09:53:00,76.5,73.3,29.87,NNW,337,0.0,-999.0,90,-99.99,,,0.00,Acu-Link.com,2013-07-28 13:53:00,
2013-07-28 10:08:00,77.4,73.6,29.86,SE,135,0.0,-999.0,88,-99.99,,,0.00,Acu-Link.com,2013-07-28 14:08:00,
2013-07-28 10:23:00,77.9,73.0,29.87,NNW,337,1.7,-999.0,85,-99.99,,,0.00,Acu-Link.com,2013-07-28 14:23:00,
2013-07-28 10:38:00,78.6,73.3,29.87,ESE,112,0.0,-999.0,84,-99.99,,,0.00,Acu-Link.com,2013-07-28 14:38:00,
2013-07-28 10:54:00,79.2,72.5,29.87,SSW,202,0.0,-999.0,80,-99.99,,,0.00,Acu-Link.com,2013-07-28 14:54:00,
2013-07-28 11:09:00,79.7,73.7,29.87,West,270,1.1,-999.0,82,-99.99,,,0.00,Acu-Link.com,2013-07-28 15:09:00,
2013-07-28 11:24:00,80.2,72.7,29.87,SSW,202,1.1,-999.0,78,-99.99,,,0.00,Acu-Link.com,2013-07-28 15:24:00,
2013-07-28 11:40:00,81.0,72.7,29.87,North,0,0.0,-999.0,76,-99.99,,,0.00,Acu-Link.com,2013-07-28 15:40:00,
2013-07-28 11:55:00,81.7,73.8,29.87,NNE,22,1.1,-999.0,77,-99.99,,,0.00,Acu-Link.com,2013-07-28 15:55:00,
2013-07-28 12:10:00,82.4,72.9,29.87,NNW,337,0.0,-999.0,73,-99.99,,,0.00,Acu-Link.com,2013-07-28 16:10:00,
2013-07-28 12:25:00,83.3,73.3,29.87,NNW,337,1.7,-999.0,72,-99.99,,,0.00,Acu-Link.com,2013-07-28 16:25:00,
2013-07-28 12:41:00,82.9,72.1,29.87,SE,135,1.7,-999.0,70,-99.99,,,0.00,Acu-Link.com,2013-07-28 16:41:00,
2013-07-28 13:27:00,82.2,74.6,29.86,SSW,202,0.0,-999.0,78,-99.99,,,0.00,Acu-Link.com,2013-07-28 17:27:00,
2013-07-28 13:42:00,85.8,75.3,29.85,SSW,202,0.0,-999.0,71,-99.99,,,0.00,Acu-Link.com,2013-07-28 17:42:00,
2013-07-28 13:57:00,84.6,72.4,29.85,ENE,67,0.0,-999.0,67,-99.99,,,0.00,Acu-Link.com,2013-07-28 17:57:00,
2013-07-28 14:13:00,84.2,75.4,29.85,WSW,247,0.0,-999.0,75,-99.99,,,0.00,Acu-Link.com,2013-07-28 18:13:00,
2013-07-28 14:28:00,88.0,74.7,29.85,NNE,22,0.0,-999.0,65,-99.99,,,0.00,Acu-Link.com,2013-07-28 18:28:00,
2013-07-28 14:43:00,88.2,72.5,29.84,SW,225,0.0,-999.0,60,-99.99,,,0.00,Acu-Link.com,2013-07-28 18:43:00,
2013-07-28 14:59:00,87.4,74.2,29.84,SSE,157,0.0,-999.0,65,-99.99,,,0.00,Acu-Link.com,2013-07-28 18:59:00,
2013-07-28 15:14:00,87.3,73.1,29.83,NNW,337,0.0,-999.0,63,-99.99,,,0.00,Acu-Link.com,2013-07-28 19:14:00,
2013-07-28 15:29:00,86.4,75.9,29.83,South,180,0.0,-999.0,71,-99.99,,,0.00,Acu-Link.com,2013-07-28 19:29:00,
2013-07-28 15:45:00,86.0,73.7,29.82,NNE,22,0.0,-999.0,67,-99.99,,,0.00,Acu-Link.com,2013-07-28 19:45:00,
2013-07-28 16:00:00,85.6,74.7,29.82,SSE,157,0.0,-999.0,70,-99.99,,,0.00,Acu-Link.com,2013-07-28 20:00:00,
2013-07-28 16:15:00,85.8,75.3,29.82,SW,225,0.0,-999.0,71,-99.99,,,0.00,Acu-Link.com,2013-07-28 20:15:00,
2013-07-28 16:30:00,82.8,73.2,29.81,SW,225,0.0,-999.0,73,-99.99,,,0.00,Acu-Link.com,2013-07-28 20:30:00,
2013-07-28 16:46:00,81.7,73.0,29.82,SW,225,0.0,-999.0,75,-99.99,,,0.00,Acu-Link.com,2013-07-28 20:46:00,
2013-07-28 17:01:00,81.5,73.2,29.82,SW,225,0.0,-999.0,76,-99.99,,,0.00,Acu-Link.com,2013-07-28 21:01:00,
2013-07-28 17:16:00,79.9,72.4,29.84,North,0,3.7,-999.0,78,-99.99,,,0.00,Acu-Link.com,2013-07-28 21:16:00,
2013-07-28 17:32:00,77.2,73.0,29.86,South,180,0.0,-999.0,87,-99.99,,,0.02,Acu-Link.com,2013-07-28 21:32:00,
2013-07-28 17:47:00,75.0,72.2,29.84,South,180,0.0,-999.0,91,-99.99,,,0.08,Acu-Link.com,2013-07-28 21:47:00,
2013-07-28 18:02:00,75.0,73.2,29.82,WSW,247,0.0,-999.0,94,-99.99,,,0.08,Acu-Link.com,2013-07-28 22:02:00,
2013-07-28 18:17:00,75.0,73.5,29.82,WSW,247,0.0,-999.0,95,-99.99,,,0.08,Acu-Link.com,2013-07-28 22:17:00,
2013-07-28 18:33:00,74.7,73.2,29.82,WSW,247,0.0,-999.0,95,-99.99,,,0.08,Acu-Link.com,2013-07-28 22:33:00,
2013-07-28 18:48:00,74.8,73.6,29.81,WSW,247,0.0,-999.0,96,-99.99,,,0.08,Acu-Link.com,2013-07-28 22:48:00,
2013-07-28 19:03:00,75.2,74.0,29.82,WSW,247,0.0,-999.0,96,-99.99,,,0.08,Acu-Link.com,2013-07-28 23:03:00,
2013-07-28 19:19:00,75.4,74.5,29.82,WSW,247,0.0,-999.0,97,-99.99,,,0.08,Acu-Link.com,2013-07-28 23:19:00,
2013-07-28 19:34:00,75.6,75.0,29.84,WSW,247,0.0,-999.0,98,-99.99,,,0.08,Acu-Link.com,2013-07-28 23:34:00,
2013-07-28 19:49:00,75.9,75.3,29.84,WSW,247,0.0,-999.0,98,-99.99,,,0.08,Acu-Link.com,2013-07-28 23:49:00,
2013-07-28 20:04:00,75.9,75.3,29.85,WSW,247,0.0,-999.0,98,-99.99,,,0.08,Acu-Link.com,2013-07-29 00:04:00,
2013-07-28 20:20:00,75.6,74.7,29.85,WSW,247,0.0,-999.0,97,-99.99,,,0.08,Acu-Link.com,2013-07-29 00:20:00,
2013-07-28 20:35:00,74.8,74.2,29.86,WSW,247,0.0,-999.0,98,-99.99,,,0.08,Acu-Link.com,2013-07-29 00:35:00,
2013-07-28 20:51:00,74.7,74.4,29.86,WSW,247,0.0,-999.0,99,-99.99,,,0.08,Acu-Link.com,2013-07-29 00:51:00,
2013-07-28 21:06:00,74.3,74.0,29.87,WSW,247,0.0,-999.0,99,-99.99,,,0.08,Acu-Link.com,2013-07-29 01:06:00,
2013-07-28 21:21:00,73.9,73.3,29.87,WSW,247,0.0,-999.0,98,-99.99,,,0.08,Acu-Link.com,2013-07-29 01:21:00,
2013-07-28 21:37:00,73.6,72.7,29.88,WSW,247,0.0,-999.0,97,-99.99,,,0.08,Acu-Link.com,2013-07-29 01:37:00,
2013-07-28 22:07:00,72.7,72.4,29.89,WSW,247,0.0,-999.0,99,-99.99,,,0.08,Acu-Link.com,2013-07-29 02:07:00,
2013-07-28 22:23:00,72.5,72.2,29.89,WSW,247,0.0,-999.0,99,-99.99,,,0.08,Acu-Link.com,2013-07-29 02:23:00,
2013-07-28 22:38:00,72.5,72.2,29.89,West,270,0.0,-999.0,99,-99.99,,,0.08,Acu-Link.com,2013-07-29 02:38:00,
2013-07-28 22:53:00,72.3,72.0,29.89,West,270,0.0,-999.0,99,-99.99,,,0.08,Acu-Link.com,2013-07-29 02:53:00,
2013-07-28 23:09:00,72.1,71.8,29.89,West,270,0.0,-999.0,99,-99.99,,,0.08,Acu-Link.com,2013-07-29 03:09:00,
2013-07-28 23:24:00,72.1,71.8,29.89,West,270,0.0,-999.0,99,-99.99,,,0.08,Acu-Link.com,2013-07-29 03:24:00,
2013-07-28 23:39:00,72.1,71.8,29.90,West,270,0.0,-999.0,99,-99.99,,,0.08,Acu-Link.com,2013-07-29 03:39:00,
2013-07-28 23:54:00,72.1,71.8,29.89,West,270,0.0,-999.0,99,-99.99,,,0.08,Acu-Link.com,2013-07-29 03:54:00,